Orsola Bottiglieri — ICQN — position and weather

sailwx.info

Track history (hours):
 
Tides and Currents Weather Stations Pressure Air Temp Water Temp Dewpoint Dewpoint Depression Visibility Wind Speed Wind Dir Waves Ship Positions

Orsola Bottiglieri

Last reported at 2015-Aug-13 12:29 UTC. Time now 2015-Aug-28 12:46 UTC.
Position N 03°57' E 099°49'.
Warning: this ship's position is 15 days out of date.

Length 292 m; draft 9 m.

Type: Cargo ship. MMSI: 247304400.

Date/timePositionNaut miles runAvg speedWind from/ knotsBaromVisibWave heightAir tempDewpointWater temp
2015-Aug-13 12:29N 03°57' E 099°49'6316.0
2015-Aug-13 08:32N 03°14' E 100°36'2814.4
2015-Aug-13 06:33N 02°54' E 100°56'1514.6
2015-Aug-13 05:33N 02°46' E 101°09'1915.7
2015-Aug-13 04:21N 02°37' E 101°25'1215.8
2015-Aug-13 03:34N 02°30' E 101°35'1615.2
2015-Aug-13 02:31N 02°20' E 101°48'6513.0
2015-Aug-12 21:33N 01°45' E 102°42'6314.4
2015-Aug-12 17:09N 01°11' E 103°36'1010.0
2015-Aug-12 16:11N 01°09' E 103°45'9 9.6
2015-Aug-12 15:15N 01°13' E 103°53'812.0
2015-Aug-12 14:33N 01°15' E 104°01'  
Track history (hours):
 
Tides and Currents Weather Stations Pressure Air Temp Water Temp Dewpoint Dewpoint Depression Visibility Wind Speed Wind Dir Waves Ship Positions

Orsola Bottiglieri

Last reported at 2015-Aug-13 12:29 UTC. Time now 2015-Aug-28 12:46 UTC.
Position N 03°57' E 099°49'.
Warning: this ship's position is 15 days out of date.

Length 292 m; draft 9 m.

Type: Cargo ship. MMSI: 247304400.

Date/timePositionNaut miles runAvg speedWind from/ knotsBaromVisibWave heightAir tempDewpointWater temp
2015-Aug-13 12:29N 03°57' E 099°49'6316.0
2015-Aug-13 08:32N 03°14' E 100°36'2814.4
2015-Aug-13 06:33N 02°54' E 100°56'1514.6
2015-Aug-13 05:33N 02°46' E 101°09'1915.7
2015-Aug-13 04:21N 02°37' E 101°25'1215.8
2015-Aug-13 03:34N 02°30' E 101°35'1615.2
2015-Aug-13 02:31N 02°20' E 101°48'6513.0
2015-Aug-12 21:33N 01°45' E 102°42'6314.4
2015-Aug-12 17:09N 01°11' E 103°36'1010.0
2015-Aug-12 16:11N 01°09' E 103°45'9 9.6
2015-Aug-12 15:15N 01°13' E 103°53'812.0
2015-Aug-12 14:33N 01°15' E 104°01'  

Dump ship's entire track history